Latest Weather Observations for Armidale Airport

IDN60801

Issued at 11:04 pm EDT Sunday 21 December 2014 (issued every 30 minutes, with the page automatically refreshed every 10 minutes)

About weather observations | Map of weather stations | Latest weather observations for NSW | Other Formats
Station Details ID: 056238 Name: ARMIDALE AIRPORT AWS Lat: -30.53 Lon: 151.62 Height: 1079.0 m
Data from the previous 72 hours. | See also: Recent months for locations in New South Wales
Date/Time
EDT
Temp
°C
App
Temp
°C
Dew
Point
Rel
Hum
%
Delta-T
°C
Wind Press
QNH
hPa
Press
MSL
hPa
Rain
since 9 am
mm
Dir
 
Spd
km/h
Gust
km/h
Spd
kts
Gust
kts
21/11:00pm 16.9 15.0 16.6 98 0.2 E 22 30 12 16 1021.6 1016.3 0.0
21/10:30pm 17.2 15.8 16.9 98 0.2 E 20 28 11 15 1021.5 1016.2 0.0
21/10:00pm 17.1 15.6 16.8 98 0.2 E 20 28 11 15 1021.3 1016.0 0.0
21/09:37pm 16.9 15.5 16.6 98 0.2 E 19 26 10 14 1020.9 1015.7 0.0
21/09:30pm 16.8 15.1 16.3 97 0.3 E 20 26 11 14 1020.8 1015.5 0.0
21/09:00pm 16.8 14.8 15.5 92 0.8 E 20 26 11 14 1020.5 1015.3 0.0
21/08:30pm 18.3 15.6 15.6 84 1.7 ENE 24 33 13 18 1020.0 1014.8 0.0
21/08:00pm 18.7 16.1 15.8 83 1.8 E 24 35 13 19 1019.3 1014.0 0.0
21/07:30pm 18.4 15.7 13.5 73 2.9 ENE 20 24 11 13 1018.9 1013.6 0.0
21/07:00pm 19.4 17.5 12.9 66 3.9 NNE 15 20 8 11 1018.9 1013.6 0.0
21/06:30pm 18.6 16.2 12.8 69 3.4 NE 17 20 9 11 1019.6 1014.3 0.0
21/05:30pm 22.2 19.7 14.1 60 5.0 ESE 20 28 11 15 1019.0 1013.7 0.0
21/05:00pm 24.2 23.5 13.1 50 6.7 WSW 9 17 5 9 1018.6 1013.3 0.0
21/04:30pm 23.8 21.3 11.2 45 7.4 WSW 15 20 8 11 1018.4 1013.1 0.0
21/04:00pm 25.6 23.2 10.2 38 9.0 WSW 13 26 7 14 1018.5 1013.2 0.0
21/03:00pm 25.5 22.1 10.5 39 8.8 W 19 24 10 13 1019.3 1014.0 0.0
21/02:30pm 25.4 23.1 10.4 39 8.8 WSW 13 20 7 11 1019.3 1014.0 0.0
21/02:00pm 25.4 22.6 10.1 38 8.9 NW 15 24 8 13 1019.7 1014.4 0.0
21/01:30pm 24.3 21.1 11.3 44 7.7 WSW 19 30 10 16 1019.9 1014.6 0.0
21/01:00pm 23.6 20.3 11.6 47 7.1 W 20 30 11 16 1020.5 1015.2 0.0
21/12:30pm 23.4 20.4 12.4 50 6.6 W 20 28 11 15 1020.6 1015.3 0.0
21/12:00pm 23.1 20.8 13.0 53 6.1 W 17 26 9 14 1020.7 1015.4 0.0
21/11:30am 22.2 19.4 12.7 55 5.7 WNW 19 32 10 17 1021.1 1015.9 0.0
21/11:00am 21.9 20.7 12.7 56 5.5 W 11 17 6 9 1021.1 1015.9 0.0
21/10:30am 20.8 20.0 12.8 60 4.8 W 9 15 5 8 1021.4 1016.1 0.0
21/10:00am 20.7 20.1 12.4 59 4.9 W 7 9 4 5 1021.4 1016.1 0.0
21/09:00am 19.6 17.6 12.8 65 4.0 NE 15 19 8 10 1021.5 1016.2 0.0
21/08:30am 18.8 16.6 13.4 71 3.2 ENE 17 22 9 12 1021.3 1016.0 0.0
21/08:00am 17.3 14.3 12.6 74 2.7 NE 20 28 11 15 1020.9 1015.7 0.0
21/07:30am 16.7 14.0 13.4 81 1.9 NE 20 30 11 16 1020.6 1015.3 0.0
21/07:01am 15.5 13.8 14.7 95 0.5 ENE 17 24 9 13 1020.4 1015.1 0.0
21/07:00am 15.5 13.9 14.9 96 0.4 ENE 17 24 9 13 1020.4 1015.1 0.0
21/06:30am 14.4 12.9 14.2 99 0.1 E 15 20 8 11 1020.0 1014.8 0.0
21/06:00am 14.5 12.6 14.2 98 0.2 E 17 20 9 11 1019.7 1014.4 0.0
21/05:30am 14.5 12.6 14.2 98 0.2 E 17 22 9 12 1019.3 1014.0 0.0
21/05:00am 14.2 12.2 14.0 99 0.1 ESE 17 20 9 11 1018.9 1013.6 0.0
21/04:41am 14.1 12.1 13.9 99 0.1 ESE 17 20 9 11 1018.9 1013.6 0.0
21/04:30am 14.2 12.2 14.0 99 0.1 E 17 20 9 11 1019.0 1013.7 0.0
21/04:00am 14.3 12.8 14.1 99 0.1 E 15 20 8 11 1018.9 1013.6 0.0
21/03:30am 14.7 13.3 14.4 98 0.2 E 15 20 8 11 1019.0 1013.7 0.0
21/03:29am 14.7 13.3 14.4 98 0.2 E 15 20 8 11 1019.0 1013.7 0.0
21/03:00am 14.8 12.7 14.6 99 0.1 E 19 24 10 13 1019.1 1013.8 0.0
21/02:30am 14.7 12.3 14.5 99 0.1 E 20 26 11 14 1019.3 1014.0 0.0
21/02:20am 14.7 12.3 14.5 99 0.1 E 20 24 11 13 1019.4 1014.1 0.0
21/02:00am 14.9 12.8 14.6 98 0.2 E 19 28 10 15 1019.5 1014.2 0.0
21/01:40am 14.9 12.6 14.6 98 0.2 E 20 28 11 15 1019.6 1014.3 0.0
21/01:30am 14.9 12.6 14.6 98 0.2 E 20 26 11 14 1019.7 1014.4 0.0
21/01:00am 15.1 12.5 14.8 98 0.2 E 22 30 12 16 1020.0 1014.8 0.0
21/12:30am 15.3 13.1 15.0 98 0.2 E 20 28 11 15 1020.4 1015.1 0.0
21/12:00am 15.4 12.5 15.1 98 0.2 E 24 32 13 17 1020.6 1015.3 0.0
 
Date/Time
EDT
Temp
°C
App
Temp
°C
Dew
Point
Rel
Hum
%
Delta-T
°C
Wind Press
QNH
hPa
Press
MSL
hPa
Rain
since 9 am
mm
Dir
 
Spd
km/h
Gust
km/h
Spd
kts
Gust
kts
20/11:30pm 15.4 12.5 15.1 98 0.2 E 24 32 13 17 1020.6 1015.3 0.0
20/11:00pm 15.5 12.6 15.2 98 0.2 E 24 33 13 18 1020.5 1015.2 0.0
20/10:30pm 15.5 12.6 15.2 98 0.2 E 24 35 13 19 1020.5 1015.2 0.0
20/10:03pm 15.6 12.6 14.8 95 0.5 E 24 32 13 17 1020.3 1015.0 0.0
20/10:00pm 15.7 12.7 14.7 94 0.6 E 24 33 13 18 1020.3 1015.0 0.0
20/09:30pm 16.2 12.7 14.4 89 1.1 E 26 35 14 19 1019.8 1014.5 0.0
20/09:00pm 16.4 12.9 14.4 88 1.2 E 26 35 14 19 1019.5 1014.2 0.0
20/08:30pm 16.6 13.0 14.1 85 1.5 E 26 33 14 18 1019.0 1013.7 0.0
20/08:00pm 17.7 14.5 14.2 80 2.1 E 24 32 13 17 1018.5 1013.2 0.0
20/07:30pm 19.2 16.8 14.5 74 2.9 E 20 28 11 15 1017.9 1012.6 0.0
20/07:00pm 20.3 18.7 14.0 67 3.8 E 15 22 8 12 1017.5 1012.1 0.0
20/06:30pm 21.9 19.6 14.0 61 4.8 E 19 26 10 14 1017.0 1011.7 0.0
20/06:00pm 21.7 19.4 13.1 58 5.2 ESE 17 24 9 13 1016.7 1011.4 0.0
20/05:30pm 22.5 20.9 12.7 54 5.9 E 13 17 7 9 1016.5 1011.1 0.0
20/05:00pm 24.5 23.8 8.5 36 9.0 NW 2 7 1 4 1016.5 1011.1 0.0
20/04:30pm 24.2 22.3 6.9 33 9.5 NNW 6 9 3 5 1016.5 1011.1 0.0
20/04:00pm 24.3 22.1 7.9 35 9.1 N 9 17 5 9 1016.7 1011.4 0.0
20/03:30pm 24.1 21.9 7.7 35 9.1 WSW 9 20 5 11 1017.1 1011.8 0.0
20/03:00pm 24.8 21.9 8.3 35 9.3 WSW 13 28 7 15 1017.5 1012.1 0.0
20/02:30pm 23.7 21.0 7.3 35 9.0 NW 11 24 6 13 1017.5 1012.1 0.0
20/02:00pm 24.0 20.7 6.3 32 9.6 SSW 13 22 7 12 1017.8 1012.5 0.0
20/01:30pm 23.1 20.6 8.0 38 8.4 SW 11 19 6 10 1018.4 1013.1 0.0
20/01:00pm 23.5 20.9 9.5 41 8.0 WNW 13 24 7 13 1018.5 1013.2 0.0
20/12:30pm 22.6 20.6 8.7 41 7.8 W 9 15 5 8 1018.9 1013.6 0.0
20/12:00pm 22.3 20.2 8.4 41 7.7 NE 9 20 5 11 1019.3 1014.0 0.0
20/11:30am 20.9 17.6 9.5 48 6.4 NE 17 30 9 16 1019.4 1014.1 0.0
20/11:00am 20.4 18.8 10.2 52 5.8 ENE 9 17 5 9 1019.4 1014.1 0.0
20/10:30am 19.9 16.9 10.6 55 5.3 ENE 17 22 9 12 1019.4 1014.1 0.0
20/10:00am 19.4 16.7 11.7 61 4.5 NE 17 26 9 14 1019.4 1014.1 0.0
20/09:30am 18.3 14.9 10.4 60 4.5 NE 19 26 10 14 1019.4 1014.1 0.0
20/09:00am 17.8 14.2 11.8 68 3.5 NE 22 30 12 16 1019.3 1014.0 0.2
20/08:41am 17.2 13.9 12.9 76 2.5 ENE 22 33 12 18 1019.1 1013.8 0.2
20/08:30am 16.8 13.3 13.3 80 2.1 ENE 24 32 13 17 1019.1 1013.8 0.2
20/08:24am 16.5 12.9 13.0 80 2.1 ENE 24 32 13 17 1019.0 1013.7 0.2
20/08:21am 16.3 12.7 13.0 81 1.9 ENE 24 32 13 17 1019.0 1013.7 0.2
20/08:00am 15.6 12.7 14.1 91 0.9 ENE 22 26 12 14 1018.9 1013.6 0.2
20/07:30am 14.2 11.6 13.9 98 0.2 E 20 24 11 13 1018.6 1013.3 0.2
20/07:00am 13.6 11.1 13.4 99 0.1 E 19 24 10 13 1018.4 1013.1 0.2
20/06:30am 13.1 10.2 12.9 99 0.1 E 20 26 11 14 1017.9 1012.6 0.2
20/06:00am 13.0 10.3 12.8 99 0.1 E 19 26 10 14 1017.6 1012.3 0.2
20/05:30am 13.0 10.6 12.8 99 0.1 ESE 17 26 9 14 1017.6 1012.3 0.2
20/05:00am 13.0 10.3 12.8 99 0.1 E 19 24 10 13 1017.4 1012.0 0.2
20/04:30am 13.0 10.3 12.8 99 0.1 E 19 28 10 15 1017.3 1011.9 0.2
20/04:00am 13.0 10.3 12.8 99 0.1 E 19 24 10 13 1017.3 1011.9 0.2
20/03:30am 13.2 10.9 12.9 98 0.2 E 17 26 9 14 1017.5 1012.1 0.2
20/03:00am 13.4 11.1 13.1 98 0.2 ESE 17 22 9 12 1017.6 1012.3 0.2
20/02:30am 13.5 10.7 13.2 98 0.2 E 20 24 11 13 1017.6 1012.3 0.2
20/02:00am 13.7 10.6 13.4 98 0.2 E 22 30 12 16 1017.9 1012.6 0.2
20/01:30am 13.8 10.7 13.3 97 0.3 E 22 30 12 16 1018.0 1012.7 0.2
20/01:03am 13.9 10.8 13.3 96 0.3 E 22 30 12 16 1018.1 1012.8 0.2
20/01:00am 13.9 10.8 13.3 96 0.3 E 22 30 12 16 1018.3 1012.9 0.2
20/12:30am 13.9 10.4 13.3 96 0.3 E 24 32 13 17 1018.5 1013.2 0.2
20/12:00am 14.0 10.4 13.2 95 0.5 E 24 35 13 19 1018.6 1013.3 0.2
 
Date/Time
EDT
Temp
°C
App
Temp
°C
Dew
Point
Rel
Hum
%
Delta-T
°C
Wind Press
QNH
hPa
Press
MSL
hPa
Rain
since 9 am
mm
Dir
 
Spd
km/h
Gust
km/h
Spd
kts
Gust
kts
19/11:30pm 14.1 10.6 13.5 96 0.4 E 24 30 13 16 1018.7 1013.4 0.2
19/11:00pm 14.3 11.7 13.7 96 0.4 E 20 28 11 15 1018.7 1013.4 0.2
19/10:30pm 14.5 11.8 13.5 94 0.6 E 20 30 11 16 1018.6 1013.3 0.2
19/10:00pm 15.5 12.4 13.5 88 1.2 E 22 28 12 15 1018.0 1012.7 0.2
19/09:30pm 16.8 14.6 10.9 68 3.3 SE 13 24 7 13 1017.5 1012.1 0.2
19/09:00pm 18.4 14.4 3.1 36 7.5 SSW 13 17 7 9 1016.9 1011.6 0.2
19/08:30pm 18.9 14.9 4.7 39 7.2 SSW 15 17 8 9 1016.6 1011.2 0.2
19/08:00pm 20.1 17.0 3.8 34 8.2 SW 9 11 5 6 1016.1 1010.8 0.2
19/07:30pm 21.8 18.9 4.8 33 8.8 WSW 9 15 5 8 1015.8 1010.4 0.2
19/07:00pm 23.3 19.4 3.3 27 10.2 SW 13 17 7 9 1015.5 1010.1 0.2
19/06:30pm 23.7 18.3 2.5 25 10.7 W 20 30 11 16 1015.0 1009.7 0.2
19/06:00pm 24.0 19.7 3.3 26 10.6 WSW 15 20 8 11 1014.9 1009.5 0.2
19/05:30pm 24.1 19.1 4.5 28 10.3 WSW 20 32 11 17 1014.7 1009.3 0.2
19/05:00pm 24.2 19.3 5.1 29 10.1 WSW 20 30 11 16 1014.7 1009.3 0.2
19/04:30pm 24.4 17.8 4.2 27 10.6 WSW 28 41 15 22 1014.6 1009.2 0.2
19/04:00pm 24.3 18.0 5.6 30 10.0 WSW 28 41 15 22 1014.7 1009.3 0.2
19/03:40pm 24.5 18.3 6.3 31 9.9 WSW 28 46 15 25 1014.7 1009.3 0.2
19/03:30pm 24.3 17.5 5.1 29 10.2 WSW 30 39 16 21 1014.7 1009.3 0.2
19/03:00pm 24.2 17.2 6.9 33 9.5 W 33 48 18 26 1014.9 1009.5 0.2
19/02:30pm 24.2 17.4 6.9 33 9.5 W 32 46 17 25 1015.1 1009.8 0.2
19/02:00pm 24.0 16.9 6.3 32 9.6 WSW 33 48 18 26 1015.0 1009.7 0.2
19/01:30pm 23.6 16.5 5.5 31 9.6 WSW 32 46 17 25 1015.1 1009.8 0.2
19/01:20pm 23.8 16.8 6.1 32 9.5 W 32 50 17 27 1015.0 1009.7 0.2
19/01:00pm 23.9 16.9 6.7 33 9.4 WSW 33 48 18 26 1015.4 1010.0 0.2
19/12:55pm 23.1 16.7 5.1 31 9.5 WSW 28 48 15 26 1015.3 1009.9 0.2
19/12:30pm 22.4 17.8 11.2 49 6.5 W 26 37 14 20 1015.7 1010.3 0.2
19/12:00pm 21.4 17.8 11.7 54 5.7 WSW 22 32 12 17 1015.9 1010.6 0.2
19/11:30am 21.8 17.6 11.2 51 6.2 W 24 32 13 17 1015.9 1010.6 0.2
19/11:00am 21.2 16.6 9.8 48 6.5 W 24 30 13 16 1015.7 1010.3 0.2
19/10:30am 20.5 16.2 10.6 53 5.7 WNW 24 32 13 17 1015.6 1010.2 0.2
19/10:00am 20.0 16.0 11.7 59 4.8 W 24 32 13 17 1015.7 1010.3 0.2
19/09:30am 19.4 14.5 9.9 54 5.3 WNW 26 33 14 18 1015.7 1010.3 0.0
19/09:00am 18.5 14.6 12.0 66 3.8 WNW 24 32 13 17 1015.7 1010.3 4.2
19/08:30am 17.5 12.7 11.8 69 3.3 WNW 28 33 15 18 1015.6 1010.2 4.2
19/08:00am 16.6 12.5 12.8 78 2.2 WNW 26 32 14 17 1015.6 1010.2 4.2
19/07:30am 15.5 11.8 12.6 83 1.7 WNW 24 35 13 19 1015.4 1010.0 4.2
19/07:00am 14.4 11.7 11.6 83 1.6 WNW 17 22 9 12 1015.3 1009.9 4.2
19/06:30am 13.6 10.1 10.9 84 1.5 WNW 20 28 11 15 1015.1 1009.8 4.2
19/06:00am 13.1 8.6 10.1 82 1.6 NW 24 30 13 16 1014.8 1009.4 4.2
19/05:30am 12.9 9.3 9.7 81 1.7 NW 19 24 10 13 1014.6 1009.2 4.2
19/05:00am 12.9 8.6 9.4 79 1.9 NW 22 28 12 15 1014.4 1009.0 4.2
19/04:30am 13.0 9.0 8.9 76 2.2 NW 20 26 11 14 1014.3 1008.9 4.2
19/04:00am 12.9 9.0 8.6 75 2.3 NW 19 22 10 12 1014.1 1008.7 4.2
19/03:30am 12.9 9.1 7.6 70 2.8 NW 17 20 9 11 1014.3 1008.9 4.2
19/03:00am 12.9 9.3 6.9 67 3.1 NW 15 17 8 9 1014.5 1009.1 4.2
19/02:30am 13.4 10.2 7.0 65 3.3 NW 13 15 7 8 1014.7 1009.3 4.2
19/02:00am 13.7 10.0 6.3 61 3.8 NW 15 17 8 9 1014.8 1009.4 4.2
19/01:30am 14.0 11.0 5.9 58 4.1 WNW 11 13 6 7 1014.8 1009.4 4.2
19/01:00am 14.8 11.4 5.9 55 4.5 WNW 13 17 7 9 1014.8 1009.4 4.2
19/12:30am 15.8 12.2 5.1 49 5.4 WNW 13 17 7 9 1014.9 1009.5 4.2
19/12:00am 15.8 11.9 5.4 50 5.3 WNW 15 17 8 9 1015.0 1009.7 4.2
 
Date/Time
EDT
Temp
°C
App
Temp
°C
Dew
Point
Rel
Hum
%
Delta-T
°C
Wind Press
QNH
hPa
Press
MSL
hPa
Rain
since 9 am
mm
Dir
 
Spd
km/h
Gust
km/h
Spd
kts
Gust
kts
18/11:30pm 17.1 12.4 5.1 45 6.1 W 19 24 10 13 1014.9 1009.5 4.2

Other Formats:

Comma delimited format used in spreadsheet applications
http://www.bom.gov.au/fwo/IDN60801/IDN60801.95773.axf

JavaScript Object Notation format (JSON) in row-major order
http://www.bom.gov.au/fwo/IDN60801/IDN60801.95773.json